Search METAR Data

METAR Data for SPCL:

SPCL 241200Z 18002KT 9999 SCT015 BKN080 26/25 Q1013 RMK TN25.0 PP000